RJOO/ITM METAR and TAF weather

Enter ICAO airport designator
Station Type Date Time Source
RJOO METAR 2020/12/06 01:00 UTC NOAA

RJOO 060100Z VRB02KT 9999 FEW030 SCT130 11/03 Q1026


Station Type Date Time Source
RJOO Decoded METAR 2020/12/06 01:00 UTC NOAA

Osaka International Airport, Japan (RJOO) 34-47N 135-27E 15M
Dec 05, 2020 - 08:00 PM EST / 2020.12.06 0100 UTC
Wind: Variable at 2 MPH (2 KT):0
Visibility: greater than 7 mile(s):0
Sky conditions: partly cloudy
Temperature: 51 F (11 C)
Dew Point: 37 F (3 C)
Relative Humidity: 57%
Pressure (altimeter): 30.30 in. Hg (1026 hPa)
ob: RJOO 060100Z VRB02KT 9999 FEW030 SCT130 11/03 Q1026
cycle: 1

Station Type Date Time Source
RJOO TAF 2020/12/05 18:30 UTC NOAA

TAF RJOO 051706Z 0518/0700 32005KT 9999 FEW030
BECMG 0523/0601 22006KT
BECMG 0606/0609 32005KT

Example: see airport list